Time;durP1;ratioP1;P1;durP2;ratioP2;P2;SDS_P1;SDS_P2;PMS_P1;PMS_P2;Temp;Humidity;BMP_temperature;BMP_pressure;BME280_temperature;BME280_humidity;BME280_pressure;Samples;Min_cycle;Max_cycle;Signal;HPM_P1;HPM_P2
2022/07/22 00:00:22;;;;;;;1.47;0.90;;;23.10;99.90;;;;;;1042943;28;20013;-76
2022/07/22 00:00:53;;;;;;;1.80;1.07;;;23.00;99.90;;;;;;1043243;28;20013;-76
2022/07/22 00:01:23;;;;;;;1.20;0.80;;;23.00;99.90;;;;;;1043009;28;20013;-76
2022/07/22 00:01:54;;;;;;;2.03;1.00;;;23.00;99.90;;;;;;1044503;28;20039;-75
2022/07/22 00:02:24;;;;;;;1.03;0.70;;;23.00;99.90;;;;;;1043334;28;20456;-74
2022/07/22 00:02:55;;;;;;;1.63;1.13;;;23.00;99.90;;;;;;1043496;28;20021;-76
2022/07/22 00:03:26;;;;;;;1.67;0.80;;;23.00;99.90;;;;;;1040040;28;20017;-75
2022/07/22 00:03:57;;;;;;;2.33;1.03;;;23.00;99.90;;;;;;1038767;28;20037;-76
2022/07/22 00:04:27;;;;;;;3.58;1.38;;;23.00;99.90;;;;;;1040020;28;20096;-74
2022/07/22 00:04:58;;;;;;;1.43;0.80;;;23.00;99.90;;;;;;1038854;28;20021;-76
2022/07/22 00:05:28;;;;;;;1.80;1.07;;;23.00;99.90;;;;;;1039070;28;20041;-77
2022/07/22 00:05:59;;;;;;;1.87;1.00;;;23.00;99.90;;;;;;1038729;28;20036;-76
2022/07/22 00:06:30;;;;;;;1.10;1.00;;;22.90;99.90;;;;;;1039176;28;20028;-76
2022/07/22 00:07:01;;;;;;;1.75;0.98;;;22.90;99.90;;;;;;1039386;28;20036;-77
2022/07/22 00:07:32;;;;;;;1.80;0.83;;;22.90;99.90;;;;;;1035042;28;20029;-76
2022/07/22 00:08:02;;;;;;;1.70;0.93;;;22.90;99.90;;;;;;1034763;28;20837;-77
2022/07/22 00:08:33;;;;;;;3.07;1.20;;;22.90;99.90;;;;;;1035110;28;20097;-75
2022/07/22 00:09:04;;;;;;;1.77;1.00;;;22.90;99.90;;;;;;1034909;28;20452;-75
2022/07/22 00:09:35;;;;;;;2.00;0.90;;;22.90;99.90;;;;;;1039583;28;20068;-73
2022/07/22 00:10:08;;;;;;;2.33;0.80;;;22.90;99.90;;;;;;1038935;28;20013;-76
2022/07/22 00:10:38;;;;;;;1.88;0.80;;;22.90;99.90;;;;;;1039020;28;20025;-76
2022/07/22 00:11:09;;;;;;;1.97;1.10;;;22.90;99.90;;;;;;1038873;28;20021;-77
2022/07/22 00:11:40;;;;;;;2.40;0.80;;;22.90;99.90;;;;;;1039010;28;20491;-76
2022/07/22 00:12:10;;;;;;;2.00;1.27;;;22.90;99.90;;;;;;1039851;28;20104;-76
2022/07/22 00:12:41;;;;;;;1.47;0.80;;;22.90;99.90;;;;;;1039375;28;20476;-76
2022/07/22 00:13:12;;;;;;;2.35;1.08;;;22.90;99.90;;;;;;1039197;28;20025;-76
2022/07/22 00:13:42;;;;;;;2.43;0.80;;;22.90;99.90;;;;;;1039372;28;20026;-75
2022/07/22 00:14:13;;;;;;;1.83;1.00;;;22.90;99.90;;;;;;1039235;28;20641;-76
2022/07/22 00:14:43;;;;;;;3.03;1.00;;;22.90;99.90;;;;;;1039619;28;20208;-76
2022/07/22 00:15:14;;;;;;;2.30;1.20;;;22.90;99.90;;;;;;1039119;28;20021;-76
2022/07/22 00:15:45;;;;;;;1.80;1.00;;;22.90;99.90;;;;;;1038829;28;20568;-75
2022/07/22 00:16:15;;;;;;;2.60;1.30;;;22.90;99.90;;;;;;1038872;28;20025;-75
2022/07/22 00:16:46;;;;;;;1.60;0.97;;;22.90;99.90;;;;;;1039078;28;20021;-75
2022/07/22 00:17:16;;;;;;;1.93;1.00;;;22.90;99.90;;;;;;1038758;28;20116;-75
2022/07/22 00:17:47;;;;;;;2.13;1.10;;;22.90;99.90;;;;;;1039699;28;20021;-75
2022/07/22 00:18:18;;;;;;;2.87;1.60;;;22.90;99.90;;;;;;1038726;28;20044;-76
2022/07/22 00:18:48;;;;;;;1.87;1.10;;;22.90;99.90;;;;;;1039137;28;20456;-76
2022/07/22 00:19:19;;;;;;;1.93;1.17;;;22.90;99.90;;;;;;1038831;28;20025;-76
2022/07/22 00:19:49;;;;;;;4.07;1.00;;;22.90;99.90;;;;;;1039047;28;20022;-76
2022/07/22 00:20:20;;;;;;;2.17;1.17;;;22.90;99.90;;;;;;1039623;28;20024;-75
2022/07/22 00:20:51;;;;;;;1.97;1.03;;;22.90;99.90;;;;;;1039380;28;20049;-76
2022/07/22 00:21:21;;;;;;;3.20;1.20;;;22.90;99.90;;;;;;1039254;28;20017;-75
2022/07/22 00:21:52;;;;;;;2.93;1.00;;;22.90;99.90;;;;;;1039008;28;20029;-73
2022/07/22 00:22:23;;;;;;;3.97;1.55;;;22.90;99.90;;;;;;1039007;28;20032;-73
2022/07/22 00:22:53;;;;;;;1.67;0.93;;;22.90;99.90;;;;;;1039571;28;20116;-76
2022/07/22 00:23:24;;;;;;;1.40;0.80;;;22.90;99.90;;;;;;1034600;28;20132;-74
2022/07/22 00:23:54;;;;;;;1.53;0.87;;;22.90;99.90;;;;;;1034752;28;20044;-76
2022/07/22 00:24:25;;;;;;;2.53;1.10;;;22.90;99.90;;;;;;1030905;28;20128;-74
2022/07/22 00:24:55;;;;;;;3.07;0.90;;;22.90;99.90;;;;;;1034698;28;20032;-75
2022/07/22 00:25:28;;;;;;;3.93;1.10;;;22.90;99.90;;;;;;1039679;28;20033;-75
2022/07/22 00:25:58;;;;;;;1.77;1.10;;;22.90;99.90;;;;;;1035014;28;20513;-76
2022/07/22 00:26:29;;;;;;;2.27;1.10;;;22.90;99.90;;;;;;1039110;28;20547;-74
2022/07/22 00:27:00;;;;;;;2.97;1.13;;;22.90;99.90;;;;;;1038694;28;20104;-75
2022/07/22 00:27:30;;;;;;;2.33;1.47;;;22.90;99.90;;;;;;1035165;28;20028;-75
2022/07/22 00:28:01;;;;;;;2.33;1.00;;;22.90;99.90;;;;;;1039365;28;20025;-75
2022/07/22 00:28:31;;;;;;;2.80;1.03;;;22.90;99.90;;;;;;1034699;28;20120;-75
2022/07/22 00:29:02;;;;;;;0.97;0.80;;;22.90;99.90;;;;;;1034673;28;20018;-74
2022/07/22 00:29:32;;;;;;;2.10;0.97;;;22.90;99.90;;;;;;1039004;28;20799;-75
2022/07/22 00:30:04;;;;;;;2.17;0.83;;;23.00;99.90;;;;;;1038812;28;20021;-75
2022/07/22 00:30:34;;;;;;;2.15;1.02;;;23.00;99.90;;;;;;1039921;28;20045;-75
2022/07/22 00:31:05;;;;;;;2.40;1.47;;;23.00;99.90;;;;;;1039096;28;20016;-75
2022/07/22 00:31:36;;;;;;;2.10;1.27;;;23.00;99.90;;;;;;1039233;28;20023;-75
2022/07/22 00:32:07;;;;;;;1.47;0.80;;;23.00;99.90;;;;;;1039239;28;20021;-75
2022/07/22 00:32:37;;;;;;;1.50;1.10;;;23.00;99.90;;;;;;1039307;28;20021;-76
2022/07/22 00:33:08;;;;;;;2.37;1.10;;;23.00;99.90;;;;;;1039929;28;20010;-74
2022/07/22 00:33:38;;;;;;;3.07;1.10;;;23.00;99.90;;;;;;1039168;28;20540;-75
2022/07/22 00:34:09;;;;;;;1.90;0.90;;;23.00;99.90;;;;;;1039134;28;20048;-75
2022/07/22 00:34:40;;;;;;;2.27;1.13;;;23.00;99.90;;;;;;1039250;28;20021;-75
2022/07/22 00:35:10;;;;;;;3.40;1.07;;;23.00;99.90;;;;;;1038739;28;20482;-75
2022/07/22 00:35:41;;;;;;;2.40;1.10;;;23.00;99.90;;;;;;1035279;28;20024;-75
2022/07/22 00:36:11;;;;;;;2.07;1.13;;;22.90;99.90;;;;;;1034729;28;20017;-75
2022/07/22 00:36:42;;;;;;;2.77;1.40;;;22.90;99.90;;;;;;1034868;28;20482;-75
2022/07/22 00:37:13;;;;;;;1.77;1.27;;;22.90;99.90;;;;;;1038772;28;20036;-74
2022/07/22 00:37:43;;;;;;;2.63;1.00;;;22.90;99.90;;;;;;1038905;28;20025;-74
2022/07/22 00:38:14;;;;;;;1.83;1.00;;;22.90;99.90;;;;;;1039707;28;20019;-73
2022/07/22 00:38:45;;;;;;;2.53;0.93;;;22.90;99.90;;;;;;1039167;28;20155;-75
2022/07/22 00:39:15;;;;;;;3.87;1.17;;;22.90;99.90;;;;;;1039128;28;20009;-75
2022/07/22 00:39:47;;;;;;;1.90;1.43;;;22.90;99.90;;;;;;1038834;28;20113;-74
2022/07/22 00:40:18;;;;;;;3.05;1.10;;;22.90;99.90;;;;;;1034552;28;20017;-75
2022/07/22 00:40:48;;;;;;;3.97;1.20;;;22.90;99.90;;;;;;1035504;28;20037;-75
2022/07/22 00:41:19;;;;;;;3.73;1.03;;;22.90;99.90;;;;;;1035036;28;20021;-73
2022/07/22 00:41:50;;;;;;;2.53;1.00;;;22.80;99.90;;;;;;1038796;28;20024;-76
2022/07/22 00:42:21;;;;;;;2.17;0.90;;;22.80;99.90;;;;;;1039176;28;20017;-74
2022/07/22 00:42:52;;;;;;;2.80;1.40;;;22.80;99.90;;;;;;1039309;28;20755;-76
2022/07/22 00:43:23;;;;;;;1.00;0.82;;;22.80;99.90;;;;;;1039711;28;20012;-75
2022/07/22 00:43:59;;;;;;;1.83;0.97;;;22.80;99.90;;;;;;1039105;28;20082;-76
2022/07/22 00:44:30;;;;;;;1.98;0.90;;;22.80;99.90;;;;;;1039076;28;20105;-75
2022/07/22 00:45:01;;;;;;;3.50;1.23;;;22.80;99.90;;;;;;1039179;28;20022;-75
2022/07/22 00:45:32;;;;;;;2.67;1.13;;;22.80;99.90;;;;;;1039103;28;20690;-74
2022/07/22 00:46:03;;;;;;;2.67;1.20;;;22.80;99.90;;;;;;1039896;28;20361;-74
2022/07/22 00:46:35;;;;;;;1.30;1.00;;;22.80;99.90;;;;;;1038724;28;20018;-74
2022/07/22 00:47:06;;;;;;;1.83;1.20;;;22.80;99.90;;;;;;1039013;28;20096;-75
2022/07/22 00:47:37;;;;;;;2.15;1.10;;;22.80;99.90;;;;;;1038461;28;20052;-74
2022/07/22 00:48:07;;;;;;;2.00;0.97;;;22.80;99.90;;;;;;1038960;28;20040;-75
2022/07/22 00:48:38;;;;;;;2.10;0.90;;;22.80;99.90;;;;;;1039505;28;20468;-74
2022/07/22 00:49:09;;;;;;;4.50;1.90;;;22.80;99.90;;;;;;1038930;28;20473;-75
2022/07/22 00:49:39;;;;;;;2.00;1.00;;;22.80;99.90;;;;;;1039170;28;20052;-74
2022/07/22 00:50:11;;;;;;;1.47;0.90;;;22.80;99.90;;;;;;1039134;28;20014;-75
2022/07/22 00:50:42;;;;;;;2.40;1.30;;;22.80;99.90;;;;;;1038859;28;20014;-75
2022/07/22 00:51:13;;;;;;;2.50;1.10;;;22.80;99.90;;;;;;1039525;28;20018;-75
2022/07/22 00:51:45;;;;;;;3.07;1.07;;;22.80;99.90;;;;;;1039043;28;20630;-75
2022/07/22 00:52:15;;;;;;;2.60;1.27;;;22.80;99.90;;;;;;1038531;28;20028;-75
2022/07/22 00:52:47;;;;;;;2.37;0.90;;;22.80;99.90;;;;;;1038828;28;20025;-75
2022/07/22 00:53:17;;;;;;;2.17;0.90;;;22.80;99.90;;;;;;1038594;28;20017;-75
2022/07/22 00:53:48;;;;;;;2.27;1.13;;;22.80;99.90;;;;;;1039202;28;20017;-74
2022/07/22 00:54:19;;;;;;;1.75;0.90;;;22.80;99.90;;;;;;1038637;28;20079;-75
2022/07/22 00:54:50;;;;;;;2.47;1.20;;;22.80;99.90;;;;;;1038482;28;20048;-75
2022/07/22 00:55:21;;;;;;;2.42;0.77;;;22.80;99.90;;;;;;1038609;28;20869;-74
2022/07/22 00:55:51;;;;;;;2.23;1.13;;;22.80;99.90;;;;;;1038759;28;20025;-75
2022/07/22 00:56:22;;;;;;;2.47;1.00;;;22.80;99.90;;;;;;1039282;28;20017;-74
2022/07/22 00:56:53;;;;;;;1.80;0.90;;;22.80;99.90;;;;;;1038827;28;20018;-75
2022/07/22 00:57:23;;;;;;;1.40;0.90;;;22.80;99.90;;;;;;1038570;28;20013;-75
2022/07/22 00:57:54;;;;;;;1.17;0.80;;;22.80;99.90;;;;;;1039123;28;20013;-74
2022/07/22 00:58:25;;;;;;;1.73;1.27;;;22.80;99.90;;;;;;1041792;28;20025;-75
2022/07/22 00:58:59;;;;;;;2.13;1.03;;;22.80;99.90;;;;;;1044053;28;20091;-75
2022/07/22 00:59:29;;;;;;;3.65;1.80;;;22.80;99.90;;;;;;1043109;28;20392;-75
2022/07/22 01:00:00;;;;;;;2.10;1.03;;;22.80;99.90;;;;;;1043184;28;20360;-75
2022/07/22 01:00:31;;;;;;;2.10;1.05;;;22.80;99.90;;;;;;1042992;28;20124;-74
2022/07/22 01:01:02;;;;;;;2.07;1.13;;;22.80;99.90;;;;;;1043212;28;20037;-75
2022/07/22 01:01:32;;;;;;;2.40;0.90;;;22.80;99.90;;;;;;1043618;28;20021;-75
2022/07/22 01:02:03;;;;;;;2.23;1.20;;;22.80;99.90;;;;;;1040665;28;20590;-74
2022/07/22 01:02:34;;;;;;;2.23;1.10;;;22.80;99.90;;;;;;1042635;28;20021;-74
2022/07/22 01:03:04;;;;;;;1.43;0.90;;;22.80;99.90;;;;;;1042995;28;20139;-75
2022/07/22 01:03:35;;;;;;;2.63;1.30;;;22.80;99.90;;;;;;1042361;28;20444;-73
2022/07/22 01:04:06;;;;;;;2.03;0.87;;;22.90;99.90;;;;;;1043698;28;20044;-73
2022/07/22 01:04:36;;;;;;;2.10;0.90;;;22.90;99.90;;;;;;1042719;28;20021;-75
2022/07/22 01:05:07;;;;;;;1.10;0.70;;;22.90;99.90;;;;;;1043062;28;20020;-75
2022/07/22 01:05:38;;;;;;;1.10;0.77;;;22.90;99.90;;;;;;1042949;28;20392;-74
2022/07/22 01:06:09;;;;;;;2.73;0.90;;;22.90;99.90;;;;;;1042950;28;20079;-75
2022/07/22 01:06:44;;;;;;;1.63;0.90;;;22.90;99.90;;;;;;1043454;28;20025;-74
2022/07/22 01:07:15;;;;;;;4.15;1.17;;;22.90;99.90;;;;;;1042872;28;20017;-75
2022/07/22 01:07:45;;;;;;;1.33;0.87;;;22.90;99.90;;;;;;1042632;28;20045;-75
2022/07/22 01:08:16;;;;;;;1.40;1.00;;;23.00;99.90;;;;;;1042928;28;20024;-75
2022/07/22 01:08:46;;;;;;;1.27;0.80;;;22.90;99.90;;;;;;1042621;28;20013;-75
2022/07/22 01:09:17;;;;;;;2.13;1.10;;;22.90;99.90;;;;;;1039610;28;20014;-74
2022/07/22 01:09:48;;;;;;;3.73;1.20;;;22.90;99.90;;;;;;1042612;28;20005;-75
2022/07/22 01:10:19;;;;;;;3.03;0.87;;;22.90;99.90;;;;;;1038658;28;20067;-74
2022/07/22 01:10:49;;;;;;;2.42;0.98;;;22.90;99.90;;;;;;1038667;28;20488;-75
2022/07/22 01:11:20;;;;;;;1.67;0.90;;;22.90;99.90;;;;;;1038808;28;20528;-74
2022/07/22 01:11:51;;;;;;;1.50;1.03;;;22.90;99.90;;;;;;1039350;28;20016;-75
2022/07/22 01:12:21;;;;;;;1.77;0.80;;;22.90;99.90;;;;;;1042830;28;20668;-74
2022/07/22 01:12:52;;;;;;;2.50;0.90;;;22.90;99.90;;;;;;1042593;28;20036;-75
2022/07/22 01:13:22;;;;;;;2.23;0.90;;;22.90;99.90;;;;;;1042835;28;20024;-75
2022/07/22 01:13:54;;;;;;;1.57;0.80;;;22.90;99.90;;;;;;1042615;28;20013;-74
2022/07/22 01:14:25;;;;;;;2.35;1.08;;;22.90;99.90;;;;;;1043644;28;20064;-74
2022/07/22 01:14:55;;;;;;;2.73;1.17;;;22.90;99.90;;;;;;1042450;28;20017;-75
2022/07/22 01:15:26;;;;;;;2.27;1.20;;;22.90;99.90;;;;;;1042971;28;20017;-75
2022/07/22 01:15:56;;;;;;;1.37;0.93;;;22.90;99.90;;;;;;1042735;28;20061;-73
2022/07/22 01:16:27;;;;;;;1.83;1.03;;;22.90;99.90;;;;;;1042744;28;20039;-75
2022/07/22 01:16:57;;;;;;;3.07;1.20;;;22.90;99.90;;;;;;1043505;28;20017;-75
2022/07/22 01:17:28;;;;;;;1.30;0.80;;;22.90;99.90;;;;;;1042741;28;20388;-74
2022/07/22 01:17:58;;;;;;;1.53;0.90;;;22.80;99.90;;;;;;1042606;28;20122;-75
2022/07/22 01:18:29;;;;;;;2.90;1.20;;;22.90;99.90;;;;;;1039376;28;20018;-75
2022/07/22 01:19:00;;;;;;;1.67;0.80;;;22.90;99.90;;;;;;1038534;28;20067;-75
2022/07/22 01:19:30;;;;;;;2.37;0.83;;;22.90;99.90;;;;;;1039361;28;20017;-74
2022/07/22 01:20:04;;;;;;;2.77;1.10;;;22.90;99.90;;;;;;1038813;28;20036;-75
2022/07/22 01:20:35;;;;;;;1.27;1.00;;;22.90;99.90;;;;;;1038371;28;20051;-73
2022/07/22 01:21:07;;;;;;;2.33;1.15;;;22.90;99.90;;;;;;1038950;28;20013;-75
2022/07/22 01:21:38;;;;;;;2.70;1.20;;;22.90;99.90;;;;;;1038436;28;20028;-74
2022/07/22 01:22:09;;;;;;;2.67;1.13;;;22.90;99.90;;;;;;1039216;28;20087;-74
2022/07/22 01:22:39;;;;;;;1.73;1.07;;;22.80;99.90;;;;;;1038495;28;20029;-75
2022/07/22 01:23:10;;;;;;;1.57;0.83;;;22.80;99.90;;;;;;1034801;28;20548;-75
2022/07/22 01:23:41;;;;;;;4.17;1.30;;;22.90;99.90;;;;;;1038120;28;20238;-74
2022/07/22 01:24:11;;;;;;;2.20;1.30;;;22.80;99.90;;;;;;1038821;28;20017;-75
2022/07/22 01:24:42;;;;;;;2.47;1.70;;;22.80;99.90;;;;;;1034870;28;20119;-75
2022/07/22 01:25:13;;;;;;;2.87;1.10;;;22.80;99.90;;;;;;1034881;28;20487;-75
2022/07/22 01:25:43;;;;;;;1.83;1.03;;;22.80;99.90;;;;;;1038483;28;20024;-74
2022/07/22 01:26:14;;;;;;;2.37;1.20;;;22.80;99.90;;;;;;1038849;28;20369;-75
2022/07/22 01:26:45;;;;;;;3.33;1.23;;;22.80;99.90;;;;;;1038811;28;20041;-74
2022/07/22 01:27:15;;;;;;;2.17;0.90;;;22.80;99.90;;;;;;1039673;28;20128;-75
2022/07/22 01:27:46;;;;;;;2.20;1.00;;;22.70;99.90;;;;;;1038725;28;20005;-74
2022/07/22 01:28:16;;;;;;;2.23;1.00;;;22.80;99.90;;;;;;1039061;28;20554;-76
2022/07/22 01:28:47;;;;;;;1.53;0.93;;;22.80;99.90;;;;;;1038486;28;20069;-75
2022/07/22 01:29:17;;;;;;;2.40;0.90;;;22.70;99.90;;;;;;1038647;28;20049;-75
2022/07/22 01:29:48;;;;;;;2.40;1.10;;;22.80;99.90;;;;;;1039384;28;20044;-75
2022/07/22 01:30:18;;;;;;;2.00;1.20;;;22.80;99.90;;;;;;1039005;28;20024;-75
2022/07/22 01:30:52;;;;;;;2.03;1.10;;;22.70;99.90;;;;;;1038366;28;20026;-74
2022/07/22 01:31:22;;;;;;;1.58;0.90;;;22.70;99.90;;;;;;1038869;28;20672;-75
2022/07/22 01:31:53;;;;;;;2.63;1.23;;;22.70;99.90;;;;;;1038320;28;20531;-75
2022/07/22 01:32:23;;;;;;;2.17;1.10;;;22.70;99.90;;;;;;1039325;28;20058;-74
2022/07/22 01:32:54;;;;;;;2.50;0.90;;;22.70;99.90;;;;;;1038396;28;20053;-74
2022/07/22 01:33:25;;;;;;;2.43;1.10;;;22.80;99.90;;;;;;1038840;28;20044;-75
2022/07/22 01:33:55;;;;;;;2.50;1.30;;;22.80;99.90;;;;;;1038302;28;20071;-75
2022/07/22 01:34:26;;;;;;;1.83;0.97;;;22.70;99.90;;;;;;1038781;28;20021;-75
2022/07/22 01:34:56;;;;;;;1.63;1.03;;;22.70;99.90;;;;;;1038914;28;20083;-75
2022/07/22 01:35:27;;;;;;;2.77;1.10;;;22.70;99.90;;;;;;1038915;28;20480;-75
2022/07/22 01:35:57;;;;;;;1.47;0.80;;;22.70;99.90;;;;;;1038327;28;20017;-74
2022/07/22 01:36:29;;;;;;;1.53;1.00;;;22.70;99.90;;;;;;1038728;28;20026;-75
2022/07/22 01:36:59;;;;;;;3.03;1.25;;;22.70;99.90;;;;;;1038368;28;20074;-74
2022/07/22 01:37:33;;;;;;;2.10;0.80;;;22.70;99.90;;;;;;1039276;28;20022;-75
2022/07/22 01:38:03;;;;;;;1.75;1.00;;;22.70;99.90;;;;;;1034317;28;20145;-75
2022/07/22 01:38:34;;;;;;;1.03;0.83;;;22.70;99.90;;;;;;1035093;28;20049;-74
2022/07/22 01:39:05;;;;;;;2.50;1.10;;;22.70;99.90;;;;;;1038701;28;20036;-75
2022/07/22 01:39:35;;;;;;;1.83;1.00;;;22.80;99.90;;;;;;1038564;28;20121;-75
2022/07/22 01:40:06;;;;;;;1.10;0.80;;;22.80;99.90;;;;;;1039020;28;20018;-75
2022/07/22 01:40:38;;;;;;;2.40;1.13;;;22.80;99.90;;;;;;1038595;28;20055;-75
2022/07/22 01:41:09;;;;;;;1.85;1.15;;;22.80;99.90;;;;;;1038789;28;20339;-75
2022/07/22 01:41:40;;;;;;;2.33;1.10;;;22.80;99.90;;;;;;1038368;28;20029;-75
2022/07/22 01:42:10;;;;;;;2.60;0.85;;;22.80;99.90;;;;;;1038705;28;20021;-75
2022/07/22 01:42:41;;;;;;;1.13;0.97;;;22.80;99.90;;;;;;1038862;28;20025;-76
2022/07/22 01:43:15;;;;;;;2.70;0.97;;;22.80;99.90;;;;;;1038770;28;20076;-75
2022/07/22 01:43:46;;;;;;;1.50;0.80;;;22.80;99.90;;;;;;1038387;28;20087;-75
2022/07/22 01:44:16;;;;;;;2.27;1.23;;;22.80;99.90;;;;;;1038569;28;20663;-75
2022/07/22 01:44:47;;;;;;;1.83;0.90;;;22.80;99.90;;;;;;1034262;28;20108;-75
2022/07/22 01:45:17;;;;;;;1.80;1.10;;;22.80;99.90;;;;;;1035179;28;20014;-76
2022/07/22 01:45:51;;;;;;;2.93;1.47;;;22.80;99.90;;;;;;1034493;28;20014;-75
2022/07/22 01:46:23;;;;;;;1.20;0.90;;;22.80;99.90;;;;;;1038671;28;20770;-75
2022/07/22 01:46:53;;;;;;;3.13;1.10;;;22.80;99.90;;;;;;1038119;28;20110;-75
2022/07/22 01:47:24;;;;;;;1.87;1.10;;;22.80;99.90;;;;;;1038709;28;20028;-75
2022/07/22 01:47:55;;;;;;;1.63;1.00;;;22.80;99.90;;;;;;1038749;28;20048;-75
2022/07/22 01:48:26;;;;;;;1.17;0.90;;;22.80;99.90;;;;;;1039081;28;20044;-75
2022/07/22 01:48:57;;;;;;;2.38;0.88;;;22.80;99.90;;;;;;1038600;28;20448;-75
2022/07/22 01:49:28;;;;;;;2.10;1.20;;;22.80;99.90;;;;;;1038682;28;20496;-75
2022/07/22 01:49:58;;;;;;;1.40;0.90;;;22.80;99.90;;;;;;1038208;28;20787;-75
2022/07/22 01:50:29;;;;;;;2.03;1.27;;;22.80;99.90;;;;;;1039435;28;20028;-74
2022/07/22 01:51:00;;;;;;;2.13;1.05;;;22.80;99.90;;;;;;1038408;28;20308;-75
2022/07/22 01:51:30;;;;;;;0.90;0.80;;;22.90;99.90;;;;;;1039165;28;20017;-74
2022/07/22 01:52:03;;;;;;;2.67;0.90;;;22.80;99.90;;;;;;1038791;28;20020;-75
2022/07/22 01:52:33;;;;;;;3.03;1.20;;;22.80;99.90;;;;;;1038571;28;20060;-74
2022/07/22 01:53:04;;;;;;;1.70;0.97;;;22.80;99.90;;;;;;1039105;28;20257;-75
2022/07/22 01:53:35;;;;;;;1.70;0.87;;;22.80;99.90;;;;;;1038483;28;20136;-72
2022/07/22 01:54:05;;;;;;;1.60;0.97;;;22.80;99.90;;;;;;1038504;28;20097;-75
2022/07/22 01:54:36;;;;;;;1.83;1.10;;;22.80;99.90;;;;;;1040917;28;20430;-74
2022/07/22 01:55:07;;;;;;;2.47;1.50;;;22.80;99.90;;;;;;1042122;28;20028;-74
2022/07/22 01:55:38;;;;;;;2.03;1.02;;;22.80;99.90;;;;;;1043494;28;20169;-76
2022/07/22 01:56:09;;;;;;;1.30;0.80;;;22.80;99.90;;;;;;1042984;28;20383;-74
2022/07/22 01:56:40;;;;;;;2.20;0.80;;;22.80;99.90;;;;;;1042942;28;20562;-74
2022/07/22 01:57:10;;;;;;;2.20;1.23;;;22.80;99.90;;;;;;1042957;28;20374;-74
2022/07/22 01:57:41;;;;;;;2.10;0.90;;;22.80;99.90;;;;;;1042764;28;20044;-74
2022/07/22 01:58:11;;;;;;;1.73;0.80;;;22.80;99.90;;;;;;1043209;28;20063;-77
2022/07/22 01:58:42;;;;;;;2.10;0.90;;;22.80;99.90;;;;;;1042746;28;20750;-74
2022/07/22 01:59:12;;;;;;;1.77;1.07;;;22.80;99.90;;;;;;1042539;28;20039;-75
2022/07/22 01:59:43;;;;;;;1.47;0.80;;;22.80;99.90;;;;;;1042392;28;20078;-75
2022/07/22 02:00:14;;;;;;;1.93;1.10;;;22.80;99.90;;;;;;1038430;28;20071;-74
2022/07/22 02:00:45;;;;;;;1.85;1.00;;;22.70;99.90;;;;;;1039014;28;20707;-75
2022/07/22 02:01:15;;;;;;;1.13;0.80;;;22.80;99.90;;;;;;1038693;28;20025;-74
2022/07/22 02:01:46;;;;;;;1.83;1.00;;;22.70;99.90;;;;;;1042790;28;20021;-74
2022/07/22 02:02:17;;;;;;;2.80;0.93;;;22.70;99.90;;;;;;1038282;28;20018;-75
2022/07/22 02:02:47;;;;;;;1.50;0.90;;;22.70;99.90;;;;;;1042573;28;20026;-75
2022/07/22 02:03:18;;;;;;;2.87;1.00;;;22.70;99.90;;;;;;1042863;28;20116;-74
2022/07/22 02:03:48;;;;;;;3.60;1.07;;;22.70;99.90;;;;;;1042918;28;20583;-75
2022/07/22 02:04:19;;;;;;;2.53;1.10;;;22.70;99.90;;;;;;1042505;28;20032;-73
2022/07/22 02:04:49;;;;;;;1.77;0.93;;;22.70;99.90;;;;;;1042997;28;20108;-75
2022/07/22 02:05:20;;;;;;;1.70;0.90;;;22.70;99.90;;;;;;1042973;28;20088;-73
2022/07/22 02:05:50;;;;;;;2.13;1.20;;;22.70;99.90;;;;;;1042889;28;20036;-76
2022/07/22 02:06:21;;;;;;;1.20;0.70;;;22.70;99.90;;;;;;1043660;28;20013;-74
2022/07/22 02:06:52;;;;;;;2.43;0.90;;;22.70;99.90;;;;;;1042922;28;20025;-75
2022/07/22 02:07:24;;;;;;;1.37;0.87;;;22.70;99.90;;;;;;1043081;28;20035;-75
2022/07/22 02:08:00;;;;;;;2.05;0.88;;;22.60;99.90;;;;;;1042817;28;20064;-73
2022/07/22 02:08:30;;;;;;;2.50;1.15;;;22.70;99.90;;;;;;1043046;28;20017;-75
2022/07/22 02:09:01;;;;;;;1.77;1.10;;;22.70;99.90;;;;;;1042642;28;20100;-76
2022/07/22 02:09:31;;;;;;;1.30;0.93;;;22.70;99.90;;;;;;1042708;28;20511;-75
2022/07/22 02:10:03;;;;;;;1.90;0.87;;;22.60;99.90;;;;;;1038309;28;20507;-75
2022/07/22 02:10:34;;;;;;;1.95;1.08;;;22.60;99.90;;;;;;1042656;28;20024;-75
2022/07/22 02:11:05;;;;;;;1.05;0.70;;;22.60;99.90;;;;;;1043180;28;20013;-75
2022/07/22 02:11:36;;;;;;;2.00;1.00;;;22.60;99.90;;;;;;1042742;28;20029;-75
2022/07/22 02:12:06;;;;;;;1.73;0.90;;;22.60;99.90;;;;;;1042913;28;20025;-76
2022/07/22 02:12:37;;;;;;;1.33;0.63;;;22.60;99.90;;;;;;1043097;28;20047;-76
2022/07/22 02:13:08;;;;;;;1.20;0.73;;;22.70;99.90;;;;;;1042691;28;20017;-75
2022/07/22 02:13:38;;;;;;;0.83;0.63;;;22.70;99.90;;;;;;1043389;28;20124;-76
2022/07/22 02:14:09;;;;;;;2.03;0.80;;;22.70;99.90;;;;;;1042869;28;20033;-75
2022/07/22 02:14:39;;;;;;;2.50;0.90;;;22.70;99.90;;;;;;1038349;28;20112;-76
2022/07/22 02:15:10;;;;;;;2.10;0.97;;;22.70;99.90;;;;;;1038462;28;20485;-75
2022/07/22 02:15:41;;;;;;;1.67;0.93;;;22.60;99.90;;;;;;1034504;28;20475;-76
2022/07/22 02:16:12;;;;;;;1.87;0.90;;;22.70;99.90;;;;;;1038542;28;20318;-75
2022/07/22 02:16:42;;;;;;;0.77;0.70;;;22.70;99.90;;;;;;1038986;28;20024;-76
2022/07/22 02:17:13;;;;;;;1.83;1.10;;;22.70;99.90;;;;;;1038665;28;20593;-74
2022/07/22 02:17:43;;;;;;;0.70;0.70;;;22.70;99.90;;;;;;1042556;28;20813;-77
2022/07/22 02:18:17;;;;;;;2.27;1.27;;;22.70;99.90;;;;;;1042652;28;20648;-76
2022/07/22 02:18:47;;;;;;;1.83;1.10;;;22.60;99.90;;;;;;1038549;28;20025;-76
2022/07/22 02:19:18;;;;;;;1.07;0.70;;;22.70;99.90;;;;;;1039327;28;20096;-76
2022/07/22 02:19:48;;;;;;;1.23;0.80;;;22.70;99.90;;;;;;1042692;28;20550;-76
2022/07/22 02:20:19;;;;;;;1.63;0.60;;;22.70;99.90;;;;;;1042448;28;20013;-76
2022/07/22 02:20:51;;;;;;;1.75;0.82;;;22.70;99.90;;;;;;1042966;28;20016;-76
2022/07/22 02:21:22;;;;;;;1.23;0.70;;;22.70;99.90;;;;;;1043001;28;20024;-76
2022/07/22 02:21:53;;;;;;;0.80;0.67;;;22.70;99.90;;;;;;1043609;28;20021;-75
2022/07/22 02:22:23;;;;;;;2.20;1.00;;;22.70;99.90;;;;;;1042385;28;20017;-76
2022/07/22 02:22:54;;;;;;;1.23;0.70;;;22.80;99.90;;;;;;1042599;28;20055;-75
2022/07/22 02:23:24;;;;;;;2.53;0.80;;;22.80;99.90;;;;;;1042632;28;20179;-76
2022/07/22 02:23:55;;;;;;;1.23;0.87;;;22.80;99.90;;;;;;1042617;28;20519;-73
2022/07/22 02:24:25;;;;;;;0.50;0.50;;;22.80;99.90;;;;;;1038991;28;20116;-75
2022/07/22 02:24:56;;;;;;;0.70;0.70;;;22.80;99.90;;;;;;1042505;28;20021;-75
2022/07/22 02:25:26;;;;;;;1.50;1.07;;;22.80;99.90;;;;;;1042585;28;20021;-76
2022/07/22 02:25:57;;;;;;;3.70;0.70;;;22.80;99.90;;;;;;1042595;28;20025;-76
2022/07/22 02:26:28;;;;;;;1.60;0.90;;;22.80;99.90;;;;;;1042961;28;20021;-74
2022/07/22 02:26:59;;;;;;;1.70;0.90;;;22.80;99.90;;;;;;1043502;28;20566;-76
2022/07/22 02:27:29;;;;;;;2.53;0.90;;;22.80;99.90;;;;;;1043005;28;20658;-75
2022/07/22 02:28:00;;;;;;;1.80;0.83;;;22.80;99.90;;;;;;1042891;28;20647;-76
2022/07/22 02:28:31;;;;;;;2.15;0.95;;;22.80;99.90;;;;;;1042258;28;20021;-75
2022/07/22 02:29:02;;;;;;;1.63;0.73;;;22.80;99.90;;;;;;1042626;28;20063;-75
2022/07/22 02:29:33;;;;;;;2.08;1.15;;;22.80;99.90;;;;;;1043092;28;20385;-75
2022/07/22 02:30:05;;;;;;;1.77;0.80;;;22.80;99.90;;;;;;1042505;28;20462;-76
2022/07/22 02:30:36;;;;;;;1.20;0.70;;;22.80;99.90;;;;;;1041947;28;20037;-75
2022/07/22 02:31:06;;;;;;;1.80;0.73;;;22.80;99.90;;;;;;1038447;28;20037;-76
2022/07/22 02:31:37;;;;;;;1.60;0.90;;;22.70;99.90;;;;;;1038393;28;20029;-75
2022/07/22 02:32:08;;;;;;;2.50;0.93;;;22.70;99.90;;;;;;1039277;28;20033;-76
2022/07/22 02:32:38;;;;;;;3.23;0.90;;;22.70;99.90;;;;;;1042539;28;20052;-76
2022/07/22 02:33:09;;;;;;;1.33;0.60;;;22.70;99.90;;;;;;1038568;28;20026;-76
2022/07/22 02:33:39;;;;;;;0.90;0.70;;;22.70;99.90;;;;;;1042697;28;20132;-76
2022/07/22 02:34:10;;;;;;;1.13;0.73;;;22.70;99.90;;;;;;1038157;28;20087;-74
2022/07/22 02:34:40;;;;;;;1.60;0.93;;;22.70;99.90;;;;;;1035176;28;20030;-76
2022/07/22 02:35:11;;;;;;;1.03;0.80;;;22.70;99.90;;;;;;1038299;28;20473;-76
2022/07/22 02:35:41;;;;;;;0.70;0.60;;;22.70;99.90;;;;;;1038458;28;20152;-76
2022/07/22 02:36:12;;;;;;;0.93;0.70;;;22.70;99.90;;;;;;1038383;28;20059;-76
2022/07/22 02:36:43;;;;;;;2.73;0.90;;;22.70;99.90;;;;;;1042510;28;20021;-76
2022/07/22 02:37:14;;;;;;;1.10;0.80;;;22.70;99.90;;;;;;1043011;28;20028;-76
2022/07/22 02:37:44;;;;;;;0.98;0.70;;;22.70;99.90;;;;;;1042611;28;20057;-75
2022/07/22 02:38:15;;;;;;;1.03;0.80;;;22.70;99.90;;;;;;1042788;28;20063;-74
2022/07/22 02:38:45;;;;;;;0.73;0.57;;;22.70;99.90;;;;;;1042985;28;20733;-76
2022/07/22 02:39:16;;;;;;;0.80;0.70;;;22.70;99.90;;;;;;1042828;28;20021;-76
2022/07/22 02:39:46;;;;;;;1.37;0.70;;;22.70;99.90;;;;;;1043693;28;20641;-76
2022/07/22 02:40:17;;;;;;;0.80;0.80;;;22.70;99.90;;;;;;1042806;28;20021;-75
2022/07/22 02:40:48;;;;;;;1.23;0.73;;;22.70;99.90;;;;;;1043745;28;20014;-76